Floriston, CA (96111)

12:54 AM PDT on September 02, 2014 (GMT -0700)
Glenshire-Devonshire | Change Station
CLOSE
Current Station
Personal Weather Station
Location: Truckee, CA
Elevation: 5970 ft
Nearby Weather Stations

Elev 5970 ft 39.36 °N, 120.09 °W | Updated 9 seconds ago

Clear
Clear
53.2 °F
Feels Like 53.2 °F
N
0.0
Wind Variable Wind from NNW
Gusts 0.0 mph

Today
High -- | Low -- °F
--% Chance of Precip.
Yesterday
High -- | Low -- °F
Precip. -- in
6:29 AM 7:29 PM
Waxing Crescent, 49% visible
Pressure 30.13 in
Visibility 10.0 miles
Clouds Clear
Dew Point 36 °F
Humidity 53%
Rainfall 0.00 in
Snow Depth Not available.
UV 0 out of 12
Pollen 8.10 out of 12
Air Quality Not available.
Flu Activity Not available.
METAR KTRK 020735Z AUTO 00000KT 10SM CLR 10/04 A3013 RMK AO2

More Conditions Fewer Conditions

Pressure 30.13 in
Visibility 10.0 miles
Clouds Clear
Dew Point 36 °F
Humidity 53%
Rainfall 0.00 in
Snow Depth Not available.
UV 0 out of 12
Pollen 8.10 out of 12
Air Quality Not available.
Flu Activity Not available.
METAR KTRK 020735Z AUTO 00000KT 10SM CLR 10/04 A3013 RMK AO2

More Conditions Fewer Conditions

10-Day Weather Forecast

Almanac

Astronomy

Sep. 02, 2014 Rise Set
Actual Time 6:29 AM PDT 7:29 PM PDT
Civil Twilight 6:02 AM PDT 7:56 PM PDT
Nautical Twilight 5:29 AM PDT 8:29 PM PDT
Astronomical Twilight 4:55 AM PDT 9:02 PM PDT
Moon 2:16 PM PDT No Moon Set
Length of Visible Light 13h 54m
Length of Day
12h 59m
Tomorrow will be 2m 29s shorter.
Waxing Crescent, 49% of the Moon is Illuminated
Today
Waxing Crescent
Sep 2
First Quarter
Sep 8
Full
Sep 15
Last Quarter
Sep 24
New

Today's Extremes

State Highs State Lows

Community

WunderPhotos

Upload Photos

1,749,589 photos uploaded!

WunderBlogs® & News

Nearby

Snow Depth

Station Depth Elevation
CSS Lab 1 in 6900 ft
Rubicon #2 0 in 7500 ft
Fallen Leaf 0 in 6300 ft
Echo Peak 0 in 7800 ft
Hagan's Meadow 0 in 8000 ft

Earthquake Activity

City Distance Mag. Time & Date
No recent earthquake activity has been reported nearby.
Minimum magnitude displayed is 2.5.

Coastal Water Temperatures

Place Temperature
No Stations Reporting

Nearby Weather Stations